sensor_id;sensor_type;location;lat;lon;timestamp;P1;durP1;ratioP1;P2;durP2;ratioP2
31596;SDS011;74162;50.912;6.918;2023-11-19T00:00:03;1.60;;;0.90;;
31596;SDS011;74162;50.912;6.918;2023-11-19T00:00:36;0.75;;;0.75;;
31596;SDS011;74162;50.912;6.918;2023-11-19T00:01:08;0.95;;;0.85;;
31596;SDS011;74162;50.912;6.918;2023-11-19T00:01:40;0.93;;;0.80;;
31596;SDS011;74162;50.912;6.918;2023-11-19T00:02:12;1.80;;;0.90;;
31596;SDS011;74162;50.912;6.918;2023-11-19T00:02:44;1.80;;;1.00;;
31596;SDS011;74162;50.912;6.918;2023-11-19T00:03:16;0.93;;;0.77;;
31596;SDS011;74162;50.912;6.918;2023-11-19T00:03:48;1.20;;;0.70;;
31596;SDS011;74162;50.912;6.918;2023-11-19T00:04:21;1.60;;;0.90;;
31596;SDS011;74162;50.912;6.918;2023-11-19T00:04:54;0.98;;;0.80;;
31596;SDS011;74162;50.912;6.918;2023-11-19T00:05:26;2.00;;;0.75;;
31596;SDS011;74162;50.912;6.918;2023-11-19T00:05:57;0.90;;;0.50;;
31596;SDS011;74162;50.912;6.918;2023-11-19T00:06:29;0.80;;;0.80;;
31596;SDS011;74162;50.912;6.918;2023-11-19T00:07:01;3.35;;;0.90;;
31596;SDS011;74162;50.912;6.918;2023-11-19T00:07:33;1.15;;;0.73;;
31596;SDS011;74162;50.912;6.918;2023-11-19T00:08:06;1.75;;;0.88;;
31596;SDS011;74162;50.912;6.918;2023-11-19T00:08:38;1.05;;;0.82;;
31596;SDS011;74162;50.912;6.918;2023-11-19T00:09:09;0.77;;;0.70;;
31596;SDS011;74162;50.912;6.918;2023-11-19T00:09:41;1.77;;;0.93;;
31596;SDS011;74162;50.912;6.918;2023-11-19T00:10:14;1.17;;;0.70;;
31596;SDS011;74162;50.912;6.918;2023-11-19T00:10:47;0.65;;;0.65;;
31596;SDS011;74162;50.912;6.918;2023-11-19T00:11:19;0.65;;;0.60;;
31596;SDS011;74162;50.912;6.918;2023-11-19T00:11:51;1.15;;;0.75;;
31596;SDS011;74162;50.912;6.918;2023-11-19T00:12:25;0.93;;;0.80;;
31596;SDS011;74162;50.912;6.918;2023-11-19T00:12:57;0.80;;;0.80;;
31596;SDS011;74162;50.912;6.918;2023-11-19T00:13:29;0.57;;;0.57;;
31596;SDS011;74162;50.912;6.918;2023-11-19T00:14:00;0.73;;;0.73;;
31596;SDS011;74162;50.912;6.918;2023-11-19T00:14:34;0.90;;;0.90;;
31596;SDS011;74162;50.912;6.918;2023-11-19T00:15:06;1.10;;;0.90;;
31596;SDS011;74162;50.912;6.918;2023-11-19T00:15:38;1.63;;;1.00;;
31596;SDS011;74162;50.912;6.918;2023-11-19T00:16:10;1.00;;;0.90;;
31596;SDS011;74162;50.912;6.918;2023-11-19T00:16:42;1.75;;;0.90;;
31596;SDS011;74162;50.912;6.918;2023-11-19T00:17:14;0.93;;;0.80;;
31596;SDS011;74162;50.912;6.918;2023-11-19T00:17:46;0.98;;;0.90;;
31596;SDS011;74162;50.912;6.918;2023-11-19T00:18:20;2.40;;;0.90;;
31596;SDS011;74162;50.912;6.918;2023-11-19T00:18:52;1.10;;;0.85;;
31596;SDS011;74162;50.912;6.918;2023-11-19T00:19:24;0.75;;;0.70;;
31596;SDS011;74162;50.912;6.918;2023-11-19T00:19:56;1.98;;;0.80;;
31596;SDS011;74162;50.912;6.918;2023-11-19T00:20:28;3.15;;;0.82;;
31596;SDS011;74162;50.912;6.918;2023-11-19T00:21:00;1.35;;;0.90;;
31596;SDS011;74162;50.912;6.918;2023-11-19T00:21:31;1.00;;;0.80;;
31596;SDS011;74162;50.912;6.918;2023-11-19T00:22:03;0.77;;;0.70;;
31596;SDS011;74162;50.912;6.918;2023-11-19T00:22:35;2.60;;;0.90;;
31596;SDS011;74162;50.912;6.918;2023-11-19T00:23:07;1.88;;;0.85;;
31596;SDS011;74162;50.912;6.918;2023-11-19T00:23:39;1.73;;;1.10;;
31596;SDS011;74162;50.912;6.918;2023-11-19T00:24:10;1.70;;;0.82;;
31596;SDS011;74162;50.912;6.918;2023-11-19T00:24:42;1.25;;;0.85;;
31596;SDS011;74162;50.912;6.918;2023-11-19T00:25:14;1.30;;;1.08;;
31596;SDS011;74162;50.912;6.918;2023-11-19T00:25:46;0.70;;;0.68;;
31596;SDS011;74162;50.912;6.918;2023-11-19T00:26:18;1.00;;;0.80;;
31596;SDS011;74162;50.912;6.918;2023-11-19T00:26:51;1.67;;;0.90;;
31596;SDS011;74162;50.912;6.918;2023-11-19T00:27:22;1.20;;;0.82;;
31596;SDS011;74162;50.912;6.918;2023-11-19T00:27:54;1.98;;;0.90;;
31596;SDS011;74162;50.912;6.918;2023-11-19T00:28:26;2.42;;;1.02;;
31596;SDS011;74162;50.912;6.918;2023-11-19T00:28:58;2.30;;;0.93;;
31596;SDS011;74162;50.912;6.918;2023-11-19T00:29:30;1.70;;;0.80;;
31596;SDS011;74162;50.912;6.918;2023-11-19T00:30:03;2.95;;;1.00;;
31596;SDS011;74162;50.912;6.918;2023-11-19T00:30:36;2.10;;;0.60;;
31596;SDS011;74162;50.912;6.918;2023-11-19T00:31:08;1.85;;;0.90;;
31596;SDS011;74162;50.912;6.918;2023-11-19T00:31:40;1.83;;;0.80;;
31596;SDS011;74162;50.912;6.918;2023-11-19T00:32:12;1.00;;;0.70;;
31596;SDS011;74162;50.912;6.918;2023-11-19T00:32:44;0.85;;;0.80;;
31596;SDS011;74162;50.912;6.918;2023-11-19T00:33:16;0.75;;;0.70;;
31596;SDS011;74162;50.912;6.918;2023-11-19T00:33:48;1.10;;;0.90;;
31596;SDS011;74162;50.912;6.918;2023-11-19T00:34:21;2.38;;;0.90;;
31596;SDS011;74162;50.912;6.918;2023-11-19T00:34:53;2.00;;;1.00;;
31596;SDS011;74162;50.912;6.918;2023-11-19T00:35:24;1.20;;;1.00;;
31596;SDS011;74162;50.912;6.918;2023-11-19T00:35:56;1.55;;;0.80;;
31596;SDS011;74162;50.912;6.918;2023-11-19T00:36:28;2.45;;;0.90;;
31596;SDS011;74162;50.912;6.918;2023-11-19T00:37:00;2.30;;;0.70;;
31596;SDS011;74162;50.912;6.918;2023-11-19T00:37:32;3.23;;;1.03;;
31596;SDS011;74162;50.912;6.918;2023-11-19T00:38:03;1.27;;;0.90;;
31596;SDS011;74162;50.912;6.918;2023-11-19T00:38:35;1.20;;;0.80;;
31596;SDS011;74162;50.912;6.918;2023-11-19T00:39:07;1.48;;;0.80;;
31596;SDS011;74162;50.912;6.918;2023-11-19T00:39:39;2.25;;;0.70;;
31596;SDS011;74162;50.912;6.918;2023-11-19T00:40:11;0.82;;;0.80;;
31596;SDS011;74162;50.912;6.918;2023-11-19T00:40:43;1.75;;;0.88;;
31596;SDS011;74162;50.912;6.918;2023-11-19T00:41:15;1.20;;;0.80;;
31596;SDS011;74162;50.912;6.918;2023-11-19T00:41:47;2.08;;;0.93;;
31596;SDS011;74162;50.912;6.918;2023-11-19T00:42:18;0.93;;;0.88;;
31596;SDS011;74162;50.912;6.918;2023-11-19T00:42:50;2.88;;;0.80;;
31596;SDS011;74162;50.912;6.918;2023-11-19T00:43:22;3.78;;;0.95;;
31596;SDS011;74162;50.912;6.918;2023-11-19T00:43:54;2.05;;;0.80;;
31596;SDS011;74162;50.912;6.918;2023-11-19T00:44:26;1.35;;;1.20;;
31596;SDS011;74162;50.912;6.918;2023-11-19T00:44:58;1.33;;;0.90;;
31596;SDS011;74162;50.912;6.918;2023-11-19T00:45:31;3.95;;;0.90;;
31596;SDS011;74162;50.912;6.918;2023-11-19T00:46:03;2.38;;;0.90;;
31596;SDS011;74162;50.912;6.918;2023-11-19T00:46:38;1.08;;;0.98;;
31596;SDS011;74162;50.912;6.918;2023-11-19T00:47:10;1.98;;;1.00;;
31596;SDS011;74162;50.912;6.918;2023-11-19T00:47:42;1.02;;;0.73;;
31596;SDS011;74162;50.912;6.918;2023-11-19T00:48:14;1.08;;;0.65;;
31596;SDS011;74162;50.912;6.918;2023-11-19T00:48:45;1.02;;;0.90;;
31596;SDS011;74162;50.912;6.918;2023-11-19T00:49:17;1.35;;;0.80;;
31596;SDS011;74162;50.912;6.918;2023-11-19T00:49:49;2.03;;;1.08;;
31596;SDS011;74162;50.912;6.918;2023-11-19T00:50:21;1.73;;;0.88;;
31596;SDS011;74162;50.912;6.918;2023-11-19T00:50:53;2.58;;;1.10;;
31596;SDS011;74162;50.912;6.918;2023-11-19T00:51:25;1.73;;;0.80;;
31596;SDS011;74162;50.912;6.918;2023-11-19T00:51:57;2.45;;;1.10;;
31596;SDS011;74162;50.912;6.918;2023-11-19T00:52:29;1.85;;;0.90;;
31596;SDS011;74162;50.912;6.918;2023-11-19T00:53:01;1.27;;;0.93;;
31596;SDS011;74162;50.912;6.918;2023-11-19T00:53:33;1.98;;;0.98;;
31596;SDS011;74162;50.912;6.918;2023-11-19T00:54:05;1.00;;;0.90;;
31596;SDS011;74162;50.912;6.918;2023-11-19T00:54:37;1.50;;;0.80;;
31596;SDS011;74162;50.912;6.918;2023-11-19T00:55:09;2.28;;;0.80;;
31596;SDS011;74162;50.912;6.918;2023-11-19T00:55:41;1.55;;;1.10;;
31596;SDS011;74162;50.912;6.918;2023-11-19T00:56:15;2.50;;;0.77;;
31596;SDS011;74162;50.912;6.918;2023-11-19T00:56:47;1.33;;;1.00;;
31596;SDS011;74162;50.912;6.918;2023-11-19T00:57:19;1.65;;;1.20;;
31596;SDS011;74162;50.912;6.918;2023-11-19T00:57:51;1.48;;;0.93;;
31596;SDS011;74162;50.912;6.918;2023-11-19T00:58:23;1.23;;;0.77;;
31596;SDS011;74162;50.912;6.918;2023-11-19T00:58:54;1.40;;;0.90;;
31596;SDS011;74162;50.912;6.918;2023-11-19T00:59:26;1.10;;;0.98;;
31596;SDS011;74162;50.912;6.918;2023-11-19T00:59:58;3.20;;;1.05;;
31596;SDS011;74162;50.912;6.918;2023-11-19T01:00:31;8.05;;;1.90;;
31596;SDS011;74162;50.912;6.918;2023-11-19T01:01:03;1.00;;;0.70;;
31596;SDS011;74162;50.912;6.918;2023-11-19T01:01:35;3.42;;;1.10;;
31596;SDS011;74162;50.912;6.918;2023-11-19T01:02:07;1.50;;;1.20;;
31596;SDS011;74162;50.912;6.918;2023-11-19T01:02:39;2.80;;;1.10;;
31596;SDS011;74162;50.912;6.918;2023-11-19T01:03:11;1.30;;;1.00;;
31596;SDS011;74162;50.912;6.918;2023-11-19T01:03:43;1.10;;;1.00;;
31596;SDS011;74162;50.912;6.918;2023-11-19T01:04:15;2.00;;;0.95;;
31596;SDS011;74162;50.912;6.918;2023-11-19T01:04:47;2.35;;;1.10;;
31596;SDS011;74162;50.912;6.918;2023-11-19T01:05:19;1.35;;;1.00;;
31596;SDS011;74162;50.912;6.918;2023-11-19T01:05:51;1.25;;;1.08;;
31596;SDS011;74162;50.912;6.918;2023-11-19T01:06:26;1.45;;;1.05;;
31596;SDS011;74162;50.912;6.918;2023-11-19T01:06:59;1.50;;;1.10;;
31596;SDS011;74162;50.912;6.918;2023-11-19T01:07:30;1.67;;;1.23;;
31596;SDS011;74162;50.912;6.918;2023-11-19T01:08:02;2.33;;;1.00;;
31596;SDS011;74162;50.912;6.918;2023-11-19T01:08:35;1.80;;;1.00;;
31596;SDS011;74162;50.912;6.918;2023-11-19T01:09:06;3.40;;;1.05;;
31596;SDS011;74162;50.912;6.918;2023-11-19T01:09:41;1.80;;;1.10;;
31596;SDS011;74162;50.912;6.918;2023-11-19T01:10:13;2.25;;;1.05;;
31596;SDS011;74162;50.912;6.918;2023-11-19T01:10:45;1.73;;;0.98;;
31596;SDS011;74162;50.912;6.918;2023-11-19T01:11:20;2.17;;;1.10;;
31596;SDS011;74162;50.912;6.918;2023-11-19T01:11:52;1.75;;;1.00;;
31596;SDS011;74162;50.912;6.918;2023-11-19T01:12:25;1.58;;;1.05;;
31596;SDS011;74162;50.912;6.918;2023-11-19T01:12:56;1.52;;;1.00;;
31596;SDS011;74162;50.912;6.918;2023-11-19T01:13:28;1.50;;;1.15;;
31596;SDS011;74162;50.912;6.918;2023-11-19T01:14:00;2.08;;;1.23;;
31596;SDS011;74162;50.912;6.918;2023-11-19T01:14:32;1.58;;;1.10;;
31596;SDS011;74162;50.912;6.918;2023-11-19T01:15:05;1.60;;;1.13;;
31596;SDS011;74162;50.912;6.918;2023-11-19T01:15:39;1.50;;;1.10;;
31596;SDS011;74162;50.912;6.918;2023-11-19T01:16:10;3.72;;;1.40;;
31596;SDS011;74162;50.912;6.918;2023-11-19T01:16:42;2.40;;;1.20;;
31596;SDS011;74162;50.912;6.918;2023-11-19T01:17:14;3.33;;;1.20;;
31596;SDS011;74162;50.912;6.918;2023-11-19T01:17:46;2.00;;;1.17;;
31596;SDS011;74162;50.912;6.918;2023-11-19T01:18:21;1.95;;;1.30;;
31596;SDS011;74162;50.912;6.918;2023-11-19T01:18:53;1.83;;;1.30;;
31596;SDS011;74162;50.912;6.918;2023-11-19T01:19:42;2.97;;;1.17;;
31596;SDS011;74162;50.912;6.918;2023-11-19T01:20:14;3.80;;;1.33;;
31596;SDS011;74162;50.912;6.918;2023-11-19T01:20:46;1.88;;;1.30;;
31596;SDS011;74162;50.912;6.918;2023-11-19T01:21:18;3.90;;;1.63;;
31596;SDS011;74162;50.912;6.918;2023-11-19T01:21:50;2.90;;;1.30;;
31596;SDS011;74162;50.912;6.918;2023-11-19T01:22:22;3.67;;;1.42;;
31596;SDS011;74162;50.912;6.918;2023-11-19T01:22:54;2.75;;;1.30;;
31596;SDS011;74162;50.912;6.918;2023-11-19T01:23:26;2.47;;;1.33;;
31596;SDS011;74162;50.912;6.918;2023-11-19T01:23:58;3.10;;;1.40;;
31596;SDS011;74162;50.912;6.918;2023-11-19T01:24:30;2.42;;;1.27;;
31596;SDS011;74162;50.912;6.918;2023-11-19T01:25:02;3.25;;;1.38;;
31596;SDS011;74162;50.912;6.918;2023-11-19T01:25:34;2.10;;;1.13;;
31596;SDS011;74162;50.912;6.918;2023-11-19T01:26:06;3.38;;;1.48;;
31596;SDS011;74162;50.912;6.918;2023-11-19T01:26:39;2.83;;;1.23;;
31596;SDS011;74162;50.912;6.918;2023-11-19T01:27:11;2.42;;;1.40;;
31596;SDS011;74162;50.912;6.918;2023-11-19T01:27:43;5.10;;;1.55;;
31596;SDS011;74162;50.912;6.918;2023-11-19T01:28:15;3.05;;;1.73;;
31596;SDS011;74162;50.912;6.918;2023-11-19T01:28:47;2.92;;;0.90;;
31596;SDS011;74162;50.912;6.918;2023-11-19T01:29:22;2.17;;;1.35;;
31596;SDS011;74162;50.912;6.918;2023-11-19T01:29:54;2.78;;;1.42;;
31596;SDS011;74162;50.912;6.918;2023-11-19T01:30:26;3.47;;;1.40;;
31596;SDS011;74162;50.912;6.918;2023-11-19T01:30:59;2.40;;;1.60;;
31596;SDS011;74162;50.912;6.918;2023-11-19T01:31:31;2.65;;;1.30;;
31596;SDS011;74162;50.912;6.918;2023-11-19T01:32:03;4.35;;;1.77;;
31596;SDS011;74162;50.912;6.918;2023-11-19T01:32:35;3.92;;;1.77;;
31596;SDS011;74162;50.912;6.918;2023-11-19T01:33:07;3.30;;;1.70;;
31596;SDS011;74162;50.912;6.918;2023-11-19T01:33:39;2.50;;;1.67;;
31596;SDS011;74162;50.912;6.918;2023-11-19T01:34:11;3.17;;;1.85;;
31596;SDS011;74162;50.912;6.918;2023-11-19T01:34:45;3.05;;;1.50;;
31596;SDS011;74162;50.912;6.918;2023-11-19T01:35:17;3.95;;;1.80;;
31596;SDS011;74162;50.912;6.918;2023-11-19T01:35:49;3.20;;;1.60;;
31596;SDS011;74162;50.912;6.918;2023-11-19T01:36:21;3.53;;;1.70;;
31596;SDS011;74162;50.912;6.918;2023-11-19T01:36:53;2.53;;;1.60;;
31596;SDS011;74162;50.912;6.918;2023-11-19T01:37:25;3.47;;;2.00;;
31596;SDS011;74162;50.912;6.918;2023-11-19T01:37:57;3.42;;;1.80;;
31596;SDS011;74162;50.912;6.918;2023-11-19T01:38:29;2.83;;;2.10;;
31596;SDS011;74162;50.912;6.918;2023-11-19T01:39:01;3.47;;;1.90;;
31596;SDS011;74162;50.912;6.918;2023-11-19T01:39:32;14.10;;;2.25;;
31596;SDS011;74162;50.912;6.918;2023-11-19T01:40:04;4.03;;;1.90;;
31596;SDS011;74162;50.912;6.918;2023-11-19T01:40:38;2.20;;;1.63;;
31596;SDS011;74162;50.912;6.918;2023-11-19T01:41:10;2.95;;;2.22;;
31596;SDS011;74162;50.912;6.918;2023-11-19T01:41:41;3.97;;;1.85;;
31596;SDS011;74162;50.912;6.918;2023-11-19T01:42:13;4.05;;;1.80;;
31596;SDS011;74162;50.912;6.918;2023-11-19T01:42:45;2.60;;;1.77;;
31596;SDS011;74162;50.912;6.918;2023-11-19T01:43:30;3.78;;;2.00;;
31596;SDS011;74162;50.912;6.918;2023-11-19T01:44:05;4.60;;;2.00;;
31596;SDS011;74162;50.912;6.918;2023-11-19T01:44:37;3.67;;;2.13;;
31596;SDS011;74162;50.912;6.918;2023-11-19T01:45:10;4.90;;;1.73;;
31596;SDS011;74162;50.912;6.918;2023-11-19T01:45:57;4.75;;;2.00;;
31596;SDS011;74162;50.912;6.918;2023-11-19T01:46:31;4.40;;;1.67;;
31596;SDS011;74162;50.912;6.918;2023-11-19T01:47:03;3.60;;;1.40;;
31596;SDS011;74162;50.912;6.918;2023-11-19T01:47:36;4.50;;;1.30;;
31596;SDS011;74162;50.912;6.918;2023-11-19T01:48:08;2.17;;;1.25;;
31596;SDS011;74162;50.912;6.918;2023-11-19T01:48:40;3.55;;;1.65;;
31596;SDS011;74162;50.912;6.918;2023-11-19T01:49:14;2.45;;;1.30;;
31596;SDS011;74162;50.912;6.918;2023-11-19T01:49:47;2.92;;;1.20;;
31596;SDS011;74162;50.912;6.918;2023-11-19T01:50:19;2.45;;;1.48;;
31596;SDS011;74162;50.912;6.918;2023-11-19T01:50:52;2.80;;;1.50;;
31596;SDS011;74162;50.912;6.918;2023-11-19T01:51:33;3.28;;;1.42;;
31596;SDS011;74162;50.912;6.918;2023-11-19T01:52:05;2.20;;;1.13;;
31596;SDS011;74162;50.912;6.918;2023-11-19T01:52:37;3.03;;;0.98;;
31596;SDS011;74162;50.912;6.918;2023-11-19T01:53:09;2.65;;;1.20;;
31596;SDS011;74162;50.912;6.918;2023-11-19T01:53:41;2.95;;;1.30;;
31596;SDS011;74162;50.912;6.918;2023-11-19T01:54:14;3.50;;;1.27;;
31596;SDS011;74162;50.912;6.918;2023-11-19T01:54:47;2.95;;;1.25;;
31596;SDS011;74162;50.912;6.918;2023-11-19T01:55:19;2.55;;;1.23;;
31596;SDS011;74162;50.912;6.918;2023-11-19T01:55:51;6.00;;;1.40;;
31596;SDS011;74162;50.912;6.918;2023-11-19T01:56:23;5.43;;;1.42;;
31596;SDS011;74162;50.912;6.918;2023-11-19T01:56:57;5.05;;;1.50;;
31596;SDS011;74162;50.912;6.918;2023-11-19T01:57:28;3.75;;;1.13;;
31596;SDS011;74162;50.912;6.918;2023-11-19T01:58:01;3.63;;;1.30;;
31596;SDS011;74162;50.912;6.918;2023-11-19T01:58:33;3.30;;;1.50;;
31596;SDS011;74162;50.912;6.918;2023-11-19T01:59:05;4.90;;;1.50;;
31596;SDS011;74162;50.912;6.918;2023-11-19T01:59:37;4.05;;;1.50;;
31596;SDS011;74162;50.912;6.918;2023-11-19T02:00:09;4.40;;;1.42;;
31596;SDS011;74162;50.912;6.918;2023-11-19T02:00:44;3.80;;;1.50;;
31596;SDS011;74162;50.912;6.918;2023-11-19T02:01:17;4.25;;;2.10;;
31596;SDS011;74162;50.912;6.918;2023-11-19T02:01:49;7.35;;;1.50;;
31596;SDS011;74162;50.912;6.918;2023-11-19T02:02:31;4.27;;;1.80;;
31596;SDS011;74162;50.912;6.918;2023-11-19T02:03:03;5.85;;;1.50;;
31596;SDS011;74162;50.912;6.918;2023-11-19T02:03:37;4.50;;;1.70;;
31596;SDS011;74162;50.912;6.918;2023-11-19T02:04:09;4.88;;;1.80;;
31596;SDS011;74162;50.912;6.918;2023-11-19T02:04:42;4.50;;;1.40;;
31596;SDS011;74162;50.912;6.918;2023-11-19T02:05:14;3.95;;;1.42;;
31596;SDS011;74162;50.912;6.918;2023-11-19T02:05:47;6.03;;;1.65;;
31596;SDS011;74162;50.912;6.918;2023-11-19T02:06:20;4.32;;;1.83;;
31596;SDS011;74162;50.912;6.918;2023-11-19T02:06:53;6.35;;;2.38;;
31596;SDS011;74162;50.912;6.918;2023-11-19T02:07:27;6.38;;;1.73;;
31596;SDS011;74162;50.912;6.918;2023-11-19T02:07:59;4.40;;;1.83;;
31596;SDS011;74162;50.912;6.918;2023-11-19T02:08:31;5.35;;;1.95;;
31596;SDS011;74162;50.912;6.918;2023-11-19T02:09:04;5.75;;;1.65;;
31596;SDS011;74162;50.912;6.918;2023-11-19T02:09:36;5.75;;;2.08;;
31596;SDS011;74162;50.912;6.918;2023-11-19T02:10:08;5.07;;;2.00;;
31596;SDS011;74162;50.912;6.918;2023-11-19T02:10:40;4.57;;;1.70;;
31596;SDS011;74162;50.912;6.918;2023-11-19T02:11:12;5.57;;;1.70;;
31596;SDS011;74162;50.912;6.918;2023-11-19T02:11:44;4.60;;;1.67;;
31596;SDS011;74162;50.912;6.918;2023-11-19T02:12:16;3.85;;;1.58;;
31596;SDS011;74162;50.912;6.918;2023-11-19T02:12:48;9.80;;;2.13;;
31596;SDS011;74162;50.912;6.918;2023-11-19T02:13:20;6.28;;;1.90;;
31596;SDS011;74162;50.912;6.918;2023-11-19T02:13:52;4.88;;;1.70;;
31596;SDS011;74162;50.912;6.918;2023-11-19T02:14:24;9.88;;;1.80;;
31596;SDS011;74162;50.912;6.918;2023-11-19T02:14:57;6.53;;;1.70;;
31596;SDS011;74162;50.912;6.918;2023-11-19T02:15:29;5.72;;;2.00;;
31596;SDS011;74162;50.912;6.918;2023-11-19T02:16:01;3.95;;;1.67;;
31596;SDS011;74162;50.912;6.918;2023-11-19T02:16:34;4.78;;;2.13;;
31596;SDS011;74162;50.912;6.918;2023-11-19T02:17:06;4.22;;;1.48;;
31596;SDS011;74162;50.912;6.918;2023-11-19T02:17:38;5.38;;;1.63;;
31596;SDS011;74162;50.912;6.918;2023-11-19T02:18:16;4.97;;;1.80;;
31596;SDS011;74162;50.912;6.918;2023-11-19T02:18:49;6.15;;;1.90;;
31596;SDS011;74162;50.912;6.918;2023-11-19T02:19:21;6.63;;;1.90;;
31596;SDS011;74162;50.912;6.918;2023-11-19T02:19:53;4.20;;;1.90;;
31596;SDS011;74162;50.912;6.918;2023-11-19T02:20:25;5.95;;;2.15;;
31596;SDS011;74162;50.912;6.918;2023-11-19T02:20:57;8.33;;;2.23;;
31596;SDS011;74162;50.912;6.918;2023-11-19T02:21:30;7.38;;;1.92;;
31596;SDS011;74162;50.912;6.918;2023-11-19T02:22:02;7.43;;;2.03;;
31596;SDS011;74162;50.912;6.918;2023-11-19T02:22:34;6.18;;;1.98;;
31596;SDS011;74162;50.912;6.918;2023-11-19T02:23:06;6.47;;;2.17;;
31596;SDS011;74162;50.912;6.918;2023-11-19T02:23:38;6.50;;;1.80;;
31596;SDS011;74162;50.912;6.918;2023-11-19T02:24:10;6.10;;;1.73;;
31596;SDS011;74162;50.912;6.918;2023-11-19T02:24:45;8.77;;;2.45;;
31596;SDS011;74162;50.912;6.918;2023-11-19T02:25:22;6.15;;;2.30;;
31596;SDS011;74162;50.912;6.918;2023-11-19T02:26:02;8.27;;;2.13;;
31596;SDS011;74162;50.912;6.918;2023-11-19T02:26:45;9.75;;;2.25;;
31596;SDS011;74162;50.912;6.918;2023-11-19T02:27:25;6.80;;;2.45;;
31596;SDS011;74162;50.912;6.918;2023-11-19T02:28:08;6.57;;;2.00;;
31596;SDS011;74162;50.912;6.918;2023-11-19T02:28:41;6.38;;;2.30;;
31596;SDS011;74162;50.912;6.918;2023-11-19T02:29:13;7.70;;;2.25;;
31596;SDS011;74162;50.912;6.918;2023-11-19T02:29:45;5.32;;;2.00;;
31596;SDS011;74162;50.912;6.918;2023-11-19T02:30:17;5.72;;;2.10;;
31596;SDS011;74162;50.912;6.918;2023-11-19T02:30:49;6.22;;;2.20;;
31596;SDS011;74162;50.912;6.918;2023-11-19T02:31:20;6.22;;;1.90;;
31596;SDS011;74162;50.912;6.918;2023-11-19T02:31:52;9.07;;;2.40;;
31596;SDS011;74162;50.912;6.918;2023-11-19T02:32:27;8.73;;;2.28;;
31596;SDS011;74162;50.912;6.918;2023-11-19T02:32:59;5.60;;;2.03;;
31596;SDS011;74162;50.912;6.918;2023-11-19T02:33:31;8.27;;;2.10;;
31596;SDS011;74162;50.912;6.918;2023-11-19T02:34:03;6.88;;;2.20;;
31596;SDS011;74162;50.912;6.918;2023-11-19T02:34:35;7.20;;;2.22;;
31596;SDS011;74162;50.912;6.918;2023-11-19T02:35:07;7.35;;;1.80;;
31596;SDS011;74162;50.912;6.918;2023-11-19T02:35:39;5.70;;;1.80;;
31596;SDS011;74162;50.912;6.918;2023-11-19T02:36:11;7.70;;;2.30;;
31596;SDS011;74162;50.912;6.918;2023-11-19T02:36:43;10.35;;;2.40;;
31596;SDS011;74162;50.912;6.918;2023-11-19T02:37:14;6.97;;;2.38;;
31596;SDS011;74162;50.912;6.918;2023-11-19T02:37:47;9.18;;;2.45;;
31596;SDS011;74162;50.912;6.918;2023-11-19T02:38:19;5.93;;;2.08;;
31596;SDS011;74162;50.912;6.918;2023-11-19T02:38:50;8.35;;;2.47;;
31596;SDS011;74162;50.912;6.918;2023-11-19T02:39:22;9.52;;;2.72;;
31596;SDS011;74162;50.912;6.918;2023-11-19T02:39:54;8.85;;;2.42;;
31596;SDS011;74162;50.912;6.918;2023-11-19T02:40:26;7.60;;;2.22;;
31596;SDS011;74162;50.912;6.918;2023-11-19T02:40:58;10.15;;;2.90;;
31596;SDS011;74162;50.912;6.918;2023-11-19T02:41:30;7.65;;;2.30;;
31596;SDS011;74162;50.912;6.918;2023-11-19T02:42:02;8.00;;;2.30;;
31596;SDS011;74162;50.912;6.918;2023-11-19T02:42:35;7.05;;;2.70;;
31596;SDS011;74162;50.912;6.918;2023-11-19T02:43:08;5.15;;;2.35;;
31596;SDS011;74162;50.912;6.918;2023-11-19T02:43:40;8.88;;;2.30;;
31596;SDS011;74162;50.912;6.918;2023-11-19T02:44:11;9.27;;;2.25;;
31596;SDS011;74162;50.912;6.918;2023-11-19T02:44:43;8.48;;;2.30;;
31596;SDS011;74162;50.912;6.918;2023-11-19T02:45:15;6.38;;;2.33;;
31596;SDS011;74162;50.912;6.918;2023-11-19T02:45:47;10.50;;;2.30;;
31596;SDS011;74162;50.912;6.918;2023-11-19T02:46:19;7.25;;;2.30;;
31596;SDS011;74162;50.912;6.918;2023-11-19T02:46:51;6.07;;;2.30;;
31596;SDS011;74162;50.912;6.918;2023-11-19T02:47:23;10.13;;;2.55;;
31596;SDS011;74162;50.912;6.918;2023-11-19T02:47:55;9.93;;;2.47;;
31596;SDS011;74162;50.912;6.918;2023-11-19T02:48:27;7.15;;;2.40;;
31596;SDS011;74162;50.912;6.918;2023-11-19T02:48:59;9.85;;;2.53;;
31596;SDS011;74162;50.912;6.918;2023-11-19T02:49:31;9.80;;;2.60;;
31596;SDS011;74162;50.912;6.918;2023-11-19T02:50:03;9.77;;;2.40;;
31596;SDS011;74162;50.912;6.918;2023-11-19T02:50:35;11.35;;;2.60;;
31596;SDS011;74162;50.912;6.918;2023-11-19T02:51:07;9.82;;;2.78;;
31596;SDS011;74162;50.912;6.918;2023-11-19T02:51:39;9.27;;;2.63;;
31596;SDS011;74162;50.912;6.918;2023-11-19T02:52:11;9.90;;;2.78;;
31596;SDS011;74162;50.912;6.918;2023-11-19T02:52:43;10.50;;;2.85;;
31596;SDS011;74162;50.912;6.918;2023-11-19T02:53:15;7.65;;;2.65;;
31596;SDS011;74162;50.912;6.918;2023-11-19T02:53:47;8.35;;;2.60;;
31596;SDS011;74162;50.912;6.918;2023-11-19T02:54:19;10.82;;;2.50;;
31596;SDS011;74162;50.912;6.918;2023-11-19T02:54:51;11.05;;;2.85;;
31596;SDS011;74162;50.912;6.918;2023-11-19T02:55:24;8.02;;;2.40;;
31596;SDS011;74162;50.912;6.918;2023-11-19T02:55:56;12.45;;;2.83;;
31596;SDS011;74162;50.912;6.918;2023-11-19T02:56:28;13.05;;;2.83;;
31596;SDS011;74162;50.912;6.918;2023-11-19T02:56:59;8.35;;;2.50;;
31596;SDS011;74162;50.912;6.918;2023-11-19T02:57:31;9.82;;;2.60;;
31596;SDS011;74162;50.912;6.918;2023-11-19T02:58:03;8.23;;;2.53;;
31596;SDS011;74162;50.912;6.918;2023-11-19T02:58:37;12.40;;;2.90;;
31596;SDS011;74162;50.912;6.918;2023-11-19T02:59:09;10.18;;;2.78;;
31596;SDS011;74162;50.912;6.918;2023-11-19T02:59:41;10.95;;;3.20;;
31596;SDS011;74162;50.912;6.918;2023-11-19T03:00:13;11.80;;;2.78;;
31596;SDS011;74162;50.912;6.918;2023-11-19T03:00:46;10.02;;;3.08;;
31596;SDS011;74162;50.912;6.918;2023-11-19T03:01:21;11.90;;;3.05;;
31596;SDS011;74162;50.912;6.918;2023-11-19T03:01:54;10.73;;;3.08;;
31596;SDS011;74162;50.912;6.918;2023-11-19T03:02:26;11.73;;;2.85;;
31596;SDS011;74162;50.912;6.918;2023-11-19T03:02:58;11.40;;;3.08;;
31596;SDS011;74162;50.912;6.918;2023-11-19T03:03:30;10.55;;;3.47;;
31596;SDS011;74162;50.912;6.918;2023-11-19T03:04:02;10.40;;;3.30;;
31596;SDS011;74162;50.912;6.918;2023-11-19T03:04:35;11.32;;;2.65;;
31596;SDS011;74162;50.912;6.918;2023-11-19T03:05:07;10.73;;;2.70;;
31596;SDS011;74162;50.912;6.918;2023-11-19T03:05:39;12.18;;;2.85;;
31596;SDS011;74162;50.912;6.918;2023-11-19T03:06:11;12.20;;;3.30;;
31596;SDS011;74162;50.912;6.918;2023-11-19T03:06:42;15.18;;;3.30;;
31596;SDS011;74162;50.912;6.918;2023-11-19T03:07:14;9.90;;;2.78;;
31596;SDS011;74162;50.912;6.918;2023-11-19T03:07:46;9.65;;;2.60;;
31596;SDS011;74162;50.912;6.918;2023-11-19T03:08:18;12.18;;;2.85;;
31596;SDS011;74162;50.912;6.918;2023-11-19T03:08:54;11.77;;;3.05;;
31596;SDS011;74162;50.912;6.918;2023-11-19T03:09:26;9.00;;;2.78;;
31596;SDS011;74162;50.912;6.918;2023-11-19T03:09:58;10.52;;;3.20;;
31596;SDS011;74162;50.912;6.918;2023-11-19T03:10:30;12.18;;;3.00;;
31596;SDS011;74162;50.912;6.918;2023-11-19T03:11:02;10.60;;;2.85;;
31596;SDS011;74162;50.912;6.918;2023-11-19T03:11:34;14.77;;;3.42;;
31596;SDS011;74162;50.912;6.918;2023-11-19T03:12:06;12.23;;;2.72;;
31596;SDS011;74162;50.912;6.918;2023-11-19T03:12:39;10.30;;;3.15;;
31596;SDS011;74162;50.912;6.918;2023-11-19T03:13:12;9.07;;;2.85;;
31596;SDS011;74162;50.912;6.918;2023-11-19T03:13:46;11.40;;;2.90;;
31596;SDS011;74162;50.912;6.918;2023-11-19T03:14:18;13.65;;;3.63;;
31596;SDS011;74162;50.912;6.918;2023-11-19T03:14:50;12.05;;;3.03;;
31596;SDS011;74162;50.912;6.918;2023-11-19T03:15:22;11.65;;;3.13;;